createdAt,value
2022-11-16T00:01:00.884Z,0.60
2022-11-16T00:03:29.573Z,0.57
2022-11-16T00:05:59.071Z,0.85
2022-11-16T00:08:27.742Z,0.50
2022-11-16T00:10:56.339Z,0.68
2022-11-16T00:13:26.377Z,0.50
2022-11-16T00:15:58.499Z,0.70
2022-11-16T00:18:27.967Z,0.50
2022-11-16T00:20:58.125Z,0.60
2022-11-16T00:23:26.837Z,0.68
2022-11-16T00:25:56.123Z,0.75
2022-11-16T00:28:27.407Z,0.70
2022-11-16T00:31:00.221Z,0.60
2022-11-16T00:33:29.318Z,0.65
2022-11-16T00:35:58.116Z,0.70
2022-11-16T00:38:29.484Z,0.50
2022-11-16T00:40:58.133Z,0.70
2022-11-16T00:43:28.415Z,0.50
2022-11-16T00:45:57.394Z,0.60
2022-11-16T00:48:25.972Z,0.60
2022-11-16T00:50:54.673Z,0.50
2022-11-16T00:53:23.980Z,0.77
2022-11-16T00:55:52.966Z,0.60
2022-11-16T00:58:23.375Z,0.80
2022-11-16T01:01:04.655Z,0.65
2022-11-16T01:03:33.438Z,0.60
2022-11-16T01:06:03.337Z,0.60
2022-11-16T01:08:33.034Z,0.85
2022-11-16T01:11:22.067Z,0.50
2022-11-16T01:13:51.555Z,0.85
2022-11-16T01:16:22.617Z,0.60
2022-11-16T01:18:51.998Z,0.60
2022-11-16T01:21:21.179Z,0.70
2022-11-16T01:23:49.894Z,0.50
2022-11-16T01:26:18.994Z,1.02
2022-11-16T01:28:47.697Z,0.60
2022-11-16T01:31:16.565Z,0.70
2022-11-16T01:33:46.602Z,0.60
2022-11-16T01:36:23.207Z,0.60
2022-11-16T01:38:51.851Z,0.80
2022-11-16T01:41:24.031Z,0.75
2022-11-16T01:43:58.159Z,0.80
2022-11-16T01:46:32.099Z,0.70
2022-11-16T01:49:04.635Z,0.80
2022-11-16T01:51:33.854Z,0.70
2022-11-16T01:54:03.412Z,0.80
2022-11-16T01:56:33.658Z,0.77
2022-11-16T01:59:14.241Z,0.70
2022-11-16T02:01:43.087Z,0.82
2022-11-16T02:04:13.680Z,0.70
2022-11-16T02:06:59.839Z,0.80
2022-11-16T02:09:52.332Z,0.90
2022-11-16T02:12:28.889Z,0.60
2022-11-16T02:15:09.964Z,0.82
2022-11-16T02:17:42.575Z,0.60
2022-11-16T02:20:31.208Z,0.60
2022-11-16T02:23:10.289Z,0.60
2022-11-16T02:25:48.028Z,0.90
2022-11-16T02:28:22.538Z,0.60
2022-11-16T02:30:55.675Z,0.90
2022-11-16T02:33:25.863Z,0.50
2022-11-16T02:35:56.796Z,0.70
2022-11-16T02:38:27.907Z,0.70
2022-11-16T02:40:59.277Z,0.63
2022-11-16T02:43:31.862Z,0.65
2022-11-16T02:46:04.324Z,0.70
2022-11-16T02:48:36.617Z,0.60
2022-11-16T02:51:06.613Z,0.70
2022-11-16T02:53:39.004Z,0.73
2022-11-16T02:56:08.103Z,0.80
2022-11-16T02:58:36.891Z,0.60
2022-11-16T03:01:09.416Z,0.80
2022-11-16T03:03:42.550Z,0.80
2022-11-16T03:06:13.367Z,0.80
2022-11-16T03:08:44.912Z,0.82
2022-11-16T03:11:31.655Z,0.60
2022-11-16T03:14:05.082Z,0.80
2022-11-16T03:16:37.619Z,0.63
2022-11-16T03:19:07.983Z,0.50
2022-11-16T03:21:39.125Z,0.50
2022-11-16T03:24:08.318Z,0.52
2022-11-16T03:26:45.507Z,0.50
2022-11-16T03:29:16.907Z,0.50
2022-11-16T03:31:51.016Z,0.50
2022-11-16T03:34:24.491Z,0.50
2022-11-16T03:36:54.889Z,0.50
2022-11-16T03:39:25.556Z,0.47
2022-11-16T03:41:54.672Z,0.60
2022-11-16T03:44:24.656Z,0.40
2022-11-16T03:46:54.819Z,0.40
2022-11-16T03:49:25.033Z,0.50
2022-11-16T03:51:55.284Z,0.60
2022-11-16T03:54:24.847Z,0.60
2022-11-16T03:56:53.466Z,1.10
2022-11-16T03:59:22.979Z,0.73
2022-11-16T04:01:51.653Z,1.00
2022-11-16T04:04:39.188Z,0.88
2022-11-16T04:07:25.422Z,0.90
2022-11-16T04:10:11.754Z,0.82
2022-11-16T04:13:00.084Z,0.90
2022-11-16T04:15:46.900Z,1.00
2022-11-16T04:18:33.328Z,0.75
2022-11-16T04:21:21.479Z,0.70
2022-11-16T04:24:07.908Z,0.80
2022-11-16T04:26:50.825Z,0.80
2022-11-16T04:29:19.656Z,0.63
2022-11-16T04:32:06.066Z,0.68
2022-11-16T04:34:52.902Z,0.70
2022-11-16T04:37:40.455Z,0.60
2022-11-16T04:40:10.148Z,0.60
2022-11-16T04:42:37.783Z,0.60
2022-11-16T04:45:24.255Z,0.55
2022-11-16T04:47:55.110Z,0.60
2022-11-16T04:50:28.995Z,0.50
2022-11-16T04:53:00.029Z,0.82
2022-11-16T04:55:30.149Z,0.60
2022-11-16T04:58:00.195Z,0.60
2022-11-16T05:00:28.953Z,0.55
2022-11-16T05:03:01.199Z,0.70
2022-11-16T05:05:31.250Z,0.60
2022-11-16T05:08:02.913Z,0.60
2022-11-16T05:10:33.745Z,0.70
2022-11-16T05:13:02.815Z,1.20
2022-11-16T05:15:31.467Z,1.08
2022-11-16T05:18:01.584Z,0.90
2022-11-16T05:20:48.939Z,0.70
2022-11-16T05:23:36.456Z,0.80
2022-11-16T05:26:10.954Z,0.70
2022-11-16T05:28:40.128Z,0.57
2022-11-16T05:31:11.079Z,0.60
2022-11-16T05:33:39.703Z,0.52
2022-11-16T05:36:09.359Z,0.77
2022-11-16T05:38:39.756Z,0.70
2022-11-16T05:41:08.481Z,0.73
2022-11-16T05:43:37.295Z,0.60
2022-11-16T05:46:15.054Z,0.50
2022-11-16T05:48:43.718Z,0.73
2022-11-16T05:51:12.429Z,0.80
2022-11-16T05:53:42.761Z,0.80
2022-11-16T05:56:14.417Z,0.57
2022-11-16T05:58:44.303Z,0.60
2022-11-16T06:01:12.941Z,0.63
2022-11-16T06:03:41.632Z,1.00
2022-11-16T06:06:10.316Z,1.20
2022-11-16T06:08:39.520Z,0.93
2022-11-16T06:11:13.400Z,0.90
2022-11-16T06:13:42.037Z,1.10
2022-11-16T06:16:10.834Z,0.80
2022-11-16T06:18:40.062Z,0.70
2022-11-16T06:21:09.851Z,1.10
2022-11-16T06:23:38.823Z,0.80
2022-11-16T06:26:07.943Z,0.88
2022-11-16T06:28:38.676Z,0.90
2022-11-16T06:31:07.676Z,0.90
2022-11-16T06:33:41.308Z,1.17
2022-11-16T06:36:21.219Z,1.40
2022-11-16T06:38:50.929Z,0.90
2022-11-16T06:41:20.725Z,0.95
2022-11-16T06:43:52.704Z,1.23
2022-11-16T06:46:26.534Z,1.33
2022-11-16T06:48:55.690Z,1.30
2022-11-16T06:51:24.368Z,1.15
2022-11-16T06:53:53.002Z,0.90
2022-11-16T06:56:23.046Z,1.27
2022-11-16T06:59:04.051Z,1.30
2022-11-16T07:01:34.011Z,1.08
2022-11-16T07:04:11.930Z,0.80
2022-11-16T07:06:42.460Z,1.10
2022-11-16T07:09:11.541Z,1.17
2022-11-16T07:11:40.210Z,0.90
2022-11-16T07:14:11.895Z,0.90
2022-11-16T07:16:40.724Z,0.90
2022-11-16T07:19:10.171Z,0.90
2022-11-16T07:21:39.646Z,1.00
2022-11-16T07:24:14.147Z,1.20
2022-11-16T07:26:43.912Z,1.20
2022-11-16T07:29:19.529Z,1.10
2022-11-16T07:32:07.775Z,1.10
2022-11-16T07:34:59.051Z,1.20
2022-11-16T07:37:28.589Z,0.80
2022-11-16T07:39:57.374Z,1.23
2022-11-16T07:42:26.887Z,1.17
2022-11-16T07:45:15.754Z,0.70
2022-11-16T07:47:53.599Z,0.90
2022-11-16T07:50:45.132Z,0.90
2022-11-16T07:53:13.999Z,1.20
2022-11-16T07:55:42.795Z,1.23
2022-11-16T07:58:11.739Z,1.02
2022-11-16T08:00:42.347Z,1.25
2022-11-16T08:03:20.453Z,1.50
2022-11-16T08:05:59.783Z,0.93
2022-11-16T08:08:28.453Z,1.20
2022-11-16T08:11:00.676Z,1.02
2022-11-16T08:13:32.028Z,1.10
2022-11-16T08:16:03.212Z,1.05
2022-11-16T08:18:33.606Z,0.98
2022-11-16T08:21:03.454Z,0.90
2022-11-16T08:23:32.277Z,1.13
2022-11-16T08:26:01.446Z,1.20
2022-11-16T08:28:31.334Z,0.98
2022-11-16T08:31:00.731Z,0.90
2022-11-16T08:33:32.009Z,0.88
2022-11-16T08:36:09.461Z,1.17
2022-11-16T08:38:41.556Z,1.10
2022-11-16T08:41:10.190Z,1.20
2022-11-16T08:43:40.471Z,0.90
2022-11-16T08:46:09.805Z,0.90
2022-11-16T08:48:42.075Z,0.90
2022-11-16T08:51:20.567Z,0.80
2022-11-16T08:53:59.997Z,0.75
2022-11-16T08:56:30.312Z,0.80
2022-11-16T08:58:59.677Z,1.00
2022-11-16T09:01:30.734Z,1.00
2022-11-16T09:04:00.975Z,1.00
2022-11-16T09:06:30.116Z,1.00
2022-11-16T09:08:59.127Z,0.90
2022-11-16T09:11:27.727Z,0.93
2022-11-16T09:13:56.775Z,1.42
2022-11-16T09:16:26.694Z,0.82
2022-11-16T09:18:55.826Z,1.13
2022-11-16T09:21:26.656Z,0.80
2022-11-16T09:23:55.777Z,1.20
2022-11-16T09:26:25.039Z,1.00
2022-11-16T09:28:56.802Z,0.90
2022-11-16T09:31:27.374Z,0.98
2022-11-16T09:33:58.290Z,0.80
2022-11-16T09:36:28.789Z,0.77
2022-11-16T09:41:53.176Z,0.88
2022-11-16T09:44:30.968Z,0.90
2022-11-16T09:47:00.663Z,0.85
2022-11-16T09:49:32.499Z,0.90
2022-11-16T09:52:04.060Z,0.82
2022-11-16T09:54:36.194Z,1.08
2022-11-16T09:57:12.178Z,0.90
2022-11-16T09:59:43.462Z,1.20
2022-11-16T10:02:19.137Z,0.90
2022-11-16T10:04:56.652Z,0.82
2022-11-16T10:07:29.948Z,0.80
2022-11-16T10:09:58.648Z,1.00
2022-11-16T10:12:29.498Z,0.90
2022-11-16T10:15:04.958Z,0.90
2022-11-16T10:17:39.288Z,0.80
2022-11-16T10:20:17.177Z,1.00
2022-11-16T10:22:50.372Z,1.30
2022-11-16T10:25:21.799Z,1.05
2022-11-16T10:27:59.098Z,1.00
2022-11-16T10:30:27.770Z,0.90
2022-11-16T10:32:59.453Z,1.00
2022-11-16T10:35:30.551Z,0.93
2022-11-16T10:38:04.016Z,1.08
2022-11-16T10:40:38.183Z,1.10
2022-11-16T10:43:08.288Z,1.25
2022-11-16T10:45:41.104Z,1.00
2022-11-16T10:48:16.515Z,1.88
2022-11-16T10:50:46.799Z,1.95
2022-11-16T10:53:17.513Z,0.88
2022-11-16T10:55:46.094Z,1.10
2022-11-16T10:58:14.658Z,1.00
2022-11-16T11:00:45.856Z,1.00
2022-11-16T11:03:14.687Z,1.10
2022-11-16T11:05:54.449Z,1.20
2022-11-16T11:08:28.248Z,1.20
2022-11-16T11:11:03.155Z,1.30
2022-11-16T11:13:34.827Z,1.20
2022-11-16T11:16:15.725Z,1.30
2022-11-16T11:18:44.321Z,1.20
2022-11-16T11:21:15.489Z,1.40
2022-11-16T11:23:47.593Z,1.30
2022-11-16T11:26:37.428Z,1.30
2022-11-16T11:29:17.492Z,1.30
2022-11-16T11:31:47.324Z,1.40
2022-11-16T11:34:18.368Z,1.52
2022-11-16T11:36:48.863Z,1.55
2022-11-16T11:39:36.473Z,1.27
2022-11-16T11:42:07.141Z,1.40
2022-11-16T11:44:43.115Z,1.50
2022-11-16T11:50:16.607Z,1.63
2022-11-16T11:52:48.940Z,1.45
2022-11-16T11:55:19.801Z,1.48
2022-11-16T11:57:49.656Z,1.40
2022-11-16T12:00:19.250Z,1.20
2022-11-16T12:03:02.122Z,1.80
2022-11-16T12:05:36.703Z,1.63
2022-11-16T12:08:20.392Z,1.27
2022-11-16T12:10:51.930Z,1.42
2022-11-16T12:13:29.841Z,1.48
2022-11-16T12:16:05.694Z,1.67
2022-11-16T12:18:41.123Z,1.35
2022-11-16T12:21:13.295Z,1.20
2022-11-16T12:23:50.208Z,1.27
2022-11-16T12:26:22.784Z,1.17
2022-11-16T12:28:55.944Z,1.17
2022-11-16T12:31:34.379Z,1.20
2022-11-16T12:34:08.180Z,1.15
2022-11-16T12:36:40.593Z,1.23
2022-11-16T12:39:17.089Z,1.20
2022-11-16T12:41:56.353Z,1.25
2022-11-16T12:44:31.605Z,1.45
2022-11-16T12:47:03.075Z,1.40
2022-11-16T12:49:37.413Z,1.38
2022-11-16T12:52:11.697Z,1.20
2022-11-16T12:55:24.179Z,1.25
2022-11-16T12:57:50.496Z,1.30
2022-11-16T13:00:20.313Z,1.20
2022-11-16T13:02:58.751Z,1.30
2022-11-16T13:05:31.604Z,1.20
2022-11-16T13:08:04.633Z,1.40
2022-11-16T13:10:36.289Z,1.48
2022-11-16T13:13:34.936Z,1.17
2022-11-16T13:15:57.723Z,1.15
2022-11-16T13:18:27.312Z,1.13
2022-11-16T13:20:58.001Z,1.25
2022-11-16T13:23:29.264Z,1.40
2022-11-16T13:26:02.926Z,1.20
2022-11-16T13:28:36.780Z,0.93
2022-11-16T13:31:08.103Z,0.95
2022-11-16T13:33:46.248Z,1.10
2022-11-16T13:36:39.355Z,1.20
2022-11-16T13:39:08.729Z,1.20
2022-11-16T13:41:38.628Z,1.30
2022-11-16T13:44:14.169Z,1.10
2022-11-16T13:47:01.040Z,1.10
2022-11-16T13:49:34.886Z,1.20
2022-11-16T13:52:22.004Z,1.33
2022-11-16T13:54:53.656Z,1.20
2022-11-16T13:57:24.616Z,1.20
2022-11-16T13:59:58.659Z,1.40
2022-11-16T14:02:31.742Z,1.27
2022-11-16T14:05:01.177Z,1.17
2022-11-16T14:07:37.255Z,1.25
2022-11-16T14:10:07.914Z,1.10
2022-11-16T14:12:58.233Z,1.10
2022-11-16T14:15:29.644Z,0.98
2022-11-16T14:17:59.593Z,1.20
2022-11-16T14:20:46.970Z,1.25
2022-11-16T14:23:27.284Z,1.40
2022-11-16T14:25:58.847Z,1.10
2022-11-16T14:28:45.344Z,1.38
2022-11-16T14:31:21.885Z,1.00
2022-11-16T14:33:51.855Z,1.20
2022-11-16T14:36:35.870Z,1.10
2022-11-16T14:39:16.246Z,1.10
2022-11-16T14:41:46.007Z,1.00
2022-11-16T14:44:14.617Z,1.30
2022-11-16T14:46:44.684Z,1.17
2022-11-16T14:49:14.879Z,1.00
2022-11-16T14:51:45.353Z,1.10
2022-11-16T14:54:16.600Z,0.85
2022-11-16T14:56:57.744Z,1.13
2022-11-16T14:59:26.708Z,0.90
2022-11-16T15:01:56.711Z,1.00
2022-11-16T15:04:26.857Z,1.27
2022-11-16T15:06:58.885Z,0.98
2022-11-16T15:09:29.080Z,0.95
2022-11-16T15:12:16.045Z,1.30
2022-11-16T15:14:47.769Z,1.00
2022-11-16T15:17:19.426Z,1.08
2022-11-16T15:19:55.567Z,1.10
2022-11-16T15:22:24.892Z,1.13
2022-11-16T15:24:57.489Z,1.30
2022-11-16T15:27:34.726Z,1.00
2022-11-16T15:30:03.853Z,1.00
2022-11-16T15:32:38.199Z,1.10
2022-11-16T15:35:07.197Z,1.10
2022-11-16T15:37:35.785Z,1.10
2022-11-16T15:40:04.457Z,1.08
2022-11-16T15:42:33.140Z,1.33
2022-11-16T15:45:02.816Z,1.40
2022-11-16T15:47:31.965Z,1.30
2022-11-16T15:50:01.988Z,1.08
2022-11-16T15:52:43.612Z,1.30
2022-11-16T15:55:23.753Z,1.50
2022-11-16T15:57:59.952Z,1.65
2022-11-16T16:00:28.964Z,1.40
2022-11-16T16:03:02.011Z,1.33
2022-11-16T16:05:41.900Z,1.20
2022-11-16T16:08:26.419Z,1.75
2022-11-16T16:11:02.031Z,1.70
2022-11-16T16:13:34.629Z,1.77
2022-11-16T16:16:23.869Z,1.95
2022-11-16T16:18:52.974Z,1.40
2022-11-16T16:21:23.155Z,1.00
2022-11-16T16:23:52.633Z,1.38
2022-11-16T16:26:22.068Z,1.30
2022-11-16T16:28:50.933Z,1.10
2022-11-16T16:31:21.413Z,1.17
2022-11-16T16:33:51.031Z,1.42
2022-11-16T16:36:20.337Z,1.20
2022-11-16T16:38:51.089Z,1.10
2022-11-16T16:41:24.214Z,1.27
2022-11-16T16:43:53.924Z,1.40
2022-11-16T16:46:23.176Z,1.20
2022-11-16T16:48:52.145Z,1.38
2022-11-16T16:51:20.755Z,1.42
2022-11-16T16:53:51.236Z,1.20
2022-11-16T16:56:20.236Z,1.40
2022-11-16T16:58:49.356Z,1.40
2022-11-16T17:01:18.509Z,1.55
2022-11-16T17:03:47.407Z,1.35
2022-11-16T17:06:16.336Z,1.60
2022-11-16T17:08:45.040Z,1.40
2022-11-16T17:11:16.670Z,2.17
2022-11-16T17:13:45.475Z,1.88
2022-11-16T17:16:14.355Z,1.30
2022-11-16T17:18:44.857Z,2.05
2022-11-16T17:21:13.908Z,2.30
2022-11-16T17:23:43.158Z,2.17
2022-11-16T17:26:12.431Z,2.53
2022-11-16T17:28:43.096Z,2.15
2022-11-16T17:31:13.364Z,6.53
2022-11-16T17:33:43.303Z,5.93
2022-11-16T17:36:16.305Z,1.80
2022-11-16T17:38:45.362Z,1.90
2022-11-16T17:41:15.271Z,1.90
2022-11-16T17:43:46.327Z,1.35
2022-11-16T17:46:16.638Z,1.40
2022-11-16T17:48:48.405Z,1.50
2022-11-16T17:51:18.743Z,1.48
2022-11-16T17:53:48.002Z,1.45
2022-11-16T17:56:17.879Z,2.03
2022-11-16T17:58:50.662Z,1.70
2022-11-16T18:01:20.007Z,1.77
2022-11-16T18:03:49.516Z,1.63
2022-11-16T18:06:19.557Z,1.75
2022-11-16T18:08:48.477Z,1.90
2022-11-16T18:11:18.630Z,2.00
2022-11-16T18:13:49.826Z,1.60
2022-11-16T18:16:20.760Z,1.48
2022-11-16T18:18:50.392Z,1.55
2022-11-16T18:21:20.923Z,1.38
2022-11-16T18:23:50.690Z,1.55
2022-11-16T18:26:21.693Z,1.63
2022-11-16T18:28:52.824Z,1.50
2022-11-16T18:31:24.887Z,1.80
2022-11-16T18:33:54.388Z,1.60
2022-11-16T18:36:24.140Z,1.70
2022-11-16T18:38:52.869Z,2.03
2022-11-16T18:41:23.314Z,1.45
2022-11-16T18:43:54.905Z,1.25
2022-11-16T18:46:25.681Z,1.30
2022-11-16T18:48:54.444Z,1.45
2022-11-16T18:51:24.541Z,1.40
2022-11-16T18:53:53.602Z,1.40
2022-11-16T18:56:22.237Z,1.52
2022-11-16T18:58:52.724Z,1.42
2022-11-16T19:01:24.236Z,1.83
2022-11-16T19:03:53.240Z,2.22
2022-11-16T19:06:22.192Z,2.00
2022-11-16T19:08:56.397Z,3.15
2022-11-16T19:11:25.563Z,4.00
2022-11-16T19:13:55.160Z,2.58
2022-11-16T19:16:25.671Z,2.15
2022-11-16T19:18:54.316Z,2.50
2022-11-16T19:21:23.459Z,2.40
2022-11-16T19:23:52.899Z,2.67
2022-11-16T19:26:24.804Z,2.25
2022-11-16T19:28:53.940Z,2.40
2022-11-16T19:31:23.293Z,2.03
2022-11-16T19:33:56.443Z,1.45
2022-11-16T19:36:25.413Z,1.42
2022-11-16T19:38:54.236Z,1.48
2022-11-16T19:41:23.167Z,1.50
2022-11-16T19:43:52.854Z,1.02
2022-11-16T19:46:21.925Z,1.00
2022-11-16T19:48:50.504Z,1.20
2022-11-16T19:51:21.662Z,1.45
2022-11-16T19:53:50.277Z,1.80
2022-11-16T19:56:19.722Z,1.70
2022-11-16T19:58:48.576Z,1.55
2022-11-16T20:01:18.268Z,1.73
2022-11-16T20:03:47.323Z,1.63
2022-11-16T20:06:16.984Z,1.58
2022-11-16T20:08:48.790Z,1.80
2022-11-16T20:11:18.457Z,1.60
2022-11-16T20:13:47.024Z,1.90
2022-11-16T20:16:15.649Z,1.90
2022-11-16T20:18:44.864Z,1.60
2022-11-16T20:21:15.192Z,2.67
2022-11-16T20:23:45.431Z,2.00
2022-11-16T20:26:15.650Z,2.10
2022-11-16T20:28:44.678Z,1.98
2022-11-16T20:31:14.035Z,1.60
2022-11-16T20:33:42.993Z,1.73
2022-11-16T20:36:12.591Z,1.80
2022-11-16T20:38:41.237Z,1.70
2022-11-16T20:41:10.578Z,2.00
2022-11-16T20:43:40.958Z,1.63
2022-11-16T20:46:10.087Z,1.80
2022-11-16T20:48:39.089Z,1.60
2022-11-16T20:51:07.998Z,1.63
2022-11-16T20:53:37.127Z,1.58
2022-11-16T20:56:07.666Z,1.90
2022-11-16T20:58:36.833Z,2.03
2022-11-16T21:01:07.726Z,2.38
2022-11-16T21:03:36.744Z,1.63
2022-11-16T21:06:08.489Z,1.90
2022-11-16T21:08:37.687Z,1.65
2022-11-16T21:11:11.249Z,2.42
2022-11-16T21:13:57.432Z,2.03
2022-11-16T21:16:27.631Z,1.75
2022-11-16T21:18:56.363Z,2.00
2022-11-16T21:21:25.879Z,1.80
2022-11-16T21:23:55.097Z,1.60
2022-11-16T21:26:24.415Z,1.88
2022-11-16T21:28:53.187Z,1.88
2022-11-16T21:31:22.759Z,1.80
2022-11-16T21:33:52.907Z,1.60
2022-11-16T21:36:22.700Z,2.40
2022-11-16T21:38:51.311Z,2.35
2022-11-16T21:41:20.603Z,2.03
2022-11-16T21:43:49.228Z,1.77
2022-11-16T21:46:18.443Z,1.85
2022-11-16T21:48:48.058Z,1.38
2022-11-16T21:51:19.016Z,1.40
2022-11-16T21:53:47.598Z,1.20
2022-11-16T21:56:16.856Z,1.38
2022-11-16T21:58:45.417Z,1.20
2022-11-16T22:01:16.006Z,1.35
2022-11-16T22:03:45.552Z,1.55
2022-11-16T22:06:32.707Z,1.20
2022-11-16T22:09:02.951Z,1.20
2022-11-16T22:11:31.501Z,1.30
2022-11-16T22:14:00.196Z,1.10
2022-11-16T22:16:28.758Z,1.05
2022-11-16T22:18:57.346Z,1.15
2022-11-16T22:21:26.973Z,1.50
2022-11-16T22:23:55.506Z,1.10
2022-11-16T22:26:25.535Z,1.20
2022-11-16T22:28:54.297Z,1.13
2022-11-16T22:31:22.933Z,1.33
2022-11-16T22:33:53.835Z,1.10
2022-11-16T22:36:22.395Z,1.20
2022-11-16T22:38:50.935Z,1.20
2022-11-16T22:41:20.172Z,0.80
2022-11-16T22:43:50.104Z,1.02
2022-11-16T22:46:18.644Z,0.90
2022-11-16T22:48:47.895Z,0.90
2022-11-16T22:51:19.966Z,0.80
2022-11-16T22:53:48.823Z,0.88
2022-11-16T22:56:17.367Z,1.10
2022-11-16T22:58:45.943Z,1.10
2022-11-16T23:01:15.995Z,1.30
2022-11-16T23:03:44.730Z,0.98
2022-11-16T23:06:13.612Z,0.93
2022-11-16T23:08:42.177Z,0.80
2022-11-16T23:11:30.124Z,0.95
2022-11-16T23:14:16.687Z,0.82
2022-11-16T23:16:46.908Z,0.70
2022-11-16T23:19:30.740Z,1.17
2022-11-16T23:22:17.102Z,0.90
2022-11-16T23:25:15.050Z,0.80
2022-11-16T23:27:46.570Z,0.80
2022-11-16T23:30:15.157Z,0.70
2022-11-16T23:32:45.077Z,0.80
2022-11-16T23:35:13.631Z,0.70
2022-11-16T23:37:52.117Z,0.77
2022-11-16T23:40:21.019Z,0.90
2022-11-16T23:43:07.122Z,0.90
2022-11-16T23:45:35.677Z,0.70
2022-11-16T23:48:05.860Z,0.80
2022-11-16T23:50:34.468Z,0.90
2022-11-16T23:53:03.060Z,0.90
2022-11-16T23:55:33.587Z,1.00
2022-11-16T23:58:02.261Z,0.80
